Time;durP1;ratioP1;P1;durP2;ratioP2;P2;SDS_P1;SDS_P2;PMS_P1;PMS_P2;Temp;Humidity;BMP_temperature;BMP_pressure;BME280_temperature;BME280_humidity;BME280_pressure;Samples;Min_cycle;Max_cycle;Signal;HPM_P1;HPM_P2
2024/01/11 07:06:48;;;;;;;10.87;2.93;;;-4.40;99.90;;;;;;3974244;23;20303;-75
2024/01/11 07:09:16;;;;;;;8.37;2.80;;;-4.50;99.90;;;;;;4877415;29;20229;-75
2024/01/11 07:11:44;;;;;;;8.63;3.00;;;-4.50;99.90;;;;;;4877185;29;20328;-72
2024/01/11 07:14:11;;;;;;;11.20;3.43;;;-4.50;99.90;;;;;;4878356;29;20306;-77
2024/01/11 07:16:39;;;;;;;12.77;4.07;;;-4.40;99.90;;;;;;4877551;29;20257;-78
2024/01/11 07:19:06;;;;;;;9.87;3.50;;;-4.40;99.90;;;;;;4877420;29;20211;-77
2024/01/11 07:21:33;;;;;;;9.60;3.60;;;-4.40;99.90;;;;;;4877632;29;20246;-82
2024/01/11 07:24:01;;;;;;;6.27;3.63;;;-4.30;99.90;;;;;;4877286;29;20214;-76
2024/01/11 07:26:28;;;;;;;13.97;4.47;;;-4.30;99.90;;;;;;4877424;29;20266;-77
2024/01/11 07:28:55;;;;;;;16.43;4.37;;;-4.40;99.90;;;;;;4877421;29;20250;-77
2024/01/11 07:31:22;;;;;;;6.17;3.60;;;-4.30;99.90;;;;;;4877575;29;20756;-77
2024/01/11 07:33:50;;;;;;;12.47;4.37;;;-4.30;99.90;;;;;;4878592;29;20235;-76
2024/01/11 07:36:17;;;;;;;14.77;4.30;;;-4.30;99.90;;;;;;4880904;29;20214;-77
2024/01/11 07:38:44;;;;;;;8.07;3.13;;;-4.30;99.90;;;;;;4881172;29;20253;-73
2024/01/11 07:41:12;;;;;;;10.20;4.20;;;-4.20;99.90;;;;;;4881317;29;20562;-78
2024/01/11 07:43:39;;;;;;;10.23;3.53;;;-4.30;99.90;;;;;;4881308;29;20317;-78
2024/01/11 07:46:07;;;;;;;11.60;3.50;;;-4.40;99.90;;;;;;4881013;29;20370;-76
2024/01/11 07:48:34;;;;;;;7.60;3.70;;;-4.50;99.90;;;;;;4881171;29;20574;-80
2024/01/11 07:51:02;;;;;;;8.40;3.53;;;-4.50;99.90;;;;;;4880965;29;20249;-80
2024/01/11 07:53:29;;;;;;;6.93;3.07;;;-4.50;99.90;;;;;;4882094;29;20774;-80
2024/01/11 07:55:56;;;;;;;13.53;4.23;;;-4.40;99.90;;;;;;4882162;29;20224;-81
2024/01/11 07:58:24;;;;;;;11.47;3.27;;;-4.50;99.90;;;;;;4882400;29;20226;-78
2024/01/11 08:00:52;;;;;;;15.03;3.53;;;-4.40;99.90;;;;;;4882202;29;20265;-80
2024/01/11 08:03:18;;;;;;;11.03;3.90;;;-4.50;99.90;;;;;;4882151;29;20729;-78
2024/01/11 08:05:46;;;;;;;6.73;3.73;;;-4.40;99.90;;;;;;4881867;29;20277;-77
2024/01/11 08:08:13;;;;;;;6.87;3.30;;;-4.30;99.90;;;;;;4882237;29;20211;-78
2024/01/11 08:10:39;;;;;;;9.13;4.03;;;-4.10;99.90;;;;;;4882270;29;20726;-74
2024/01/11 08:13:07;;;;;;;8.87;3.47;;;-4.20;99.90;;;;;;4882190;29;20314;-80
2024/01/11 08:15:35;;;;;;;12.43;2.50;;;-4.20;99.90;;;;;;4881060;29;20267;-78
2024/01/11 08:18:02;;;;;;;8.63;4.20;;;-4.10;99.90;;;;;;4881931;29;20298;-79
2024/01/11 08:20:29;;;;;;;7.03;2.97;;;-4.00;99.90;;;;;;4882018;29;20203;-78
2024/01/11 08:22:56;;;;;;;13.10;4.47;;;-3.80;99.90;;;;;;4881461;29;20748;-78
2024/01/11 08:25:23;;;;;;;13.03;3.70;;;-3.50;99.90;;;;;;4881802;29;20568;-78
2024/01/11 08:27:50;;;;;;;7.30;3.50;;;-3.30;99.90;;;;;;4882102;29;20639;-78
2024/01/11 08:30:17;;;;;;;18.50;5.50;;;-3.00;99.90;;;;;;4882010;29;20211;-76
2024/01/11 08:32:45;;;;;;;17.30;4.77;;;-2.70;99.90;;;;;;4881484;29;20326;-78
2024/01/11 08:35:13;;;;;;;9.83;4.53;;;-2.50;99.90;;;;;;4881708;29;20255;-77
2024/01/11 08:37:40;;;;;;;10.93;3.73;;;-2.50;99.90;;;;;;4881796;29;20211;-77
2024/01/11 08:40:09;;;;;;;9.03;3.97;;;-2.30;99.90;;;;;;4879517;29;20306;-80
2024/01/11 08:42:36;;;;;;;11.47;4.33;;;-2.40;99.90;;;;;;4883951;29;20266;-82
2024/01/11 08:45:06;;;;;;;15.07;4.73;;;-2.40;99.90;;;;;;4882711;29;20338;-84
2024/01/11 08:47:34;;;;;;;14.30;4.80;;;-2.30;99.90;;;;;;4881877;29;20207;-87
2024/01/11 08:50:05;;;;;;;10.63;3.77;;;-2.50;99.90;;;;;;4881346;29;20697;-83
2024/01/11 08:52:33;;;;;;;6.83;3.40;;;-2.60;99.90;;;;;;4881396;29;20289;-85
2024/01/11 08:54:59;;;;;;;10.27;4.43;;;-2.60;99.90;;;;;;4882307;29;20582;-79
2024/01/11 08:57:27;;;;;;;12.13;4.83;;;-2.50;99.90;;;;;;4881919;29;20607;-76
2024/01/11 08:59:54;;;;;;;8.03;3.40;;;-2.50;99.90;;;;;;4890632;29;20241;-84
2024/01/11 09:02:21;;;;;;;11.40;4.33;;;-2.50;99.90;;;;;;4880962;29;20453;-81
2024/01/11 09:04:48;;;;;;;16.57;4.30;;;-2.50;99.90;;;;;;4881488;29;20766;-82
2024/01/11 09:07:16;;;;;;;9.80;4.20;;;-2.70;99.90;;;;;;4880695;29;20642;-80
2024/01/11 09:09:43;;;;;;;16.47;4.40;;;-3.10;99.90;;;;;;4881681;29;20253;-85
2024/01/11 09:12:10;;;;;;;10.90;4.13;;;-3.10;99.90;;;;;;4881016;29;20765;-79
2024/01/11 09:14:39;;;;;;;10.27;5.00;;;-3.00;99.90;;;;;;4880884;29;20632;-80
2024/01/11 09:17:06;;;;;;;8.87;4.17;;;-2.90;99.90;;;;;;4880665;29;20670;-81
2024/01/11 09:19:33;;;;;;;10.43;3.57;;;-3.10;99.90;;;;;;4880852;29;20298;-78
2024/01/11 09:22:00;;;;;;;14.83;5.13;;;-3.20;99.90;;;;;;4880765;29;20695;-80
2024/01/11 09:24:29;;;;;;;17.77;3.87;;;-3.00;99.90;;;;;;4881105;29;20385;-79
2024/01/11 09:26:56;;;;;;;10.23;4.53;;;-2.70;99.90;;;;;;4880613;29;20261;-82
2024/01/11 09:29:22;;;;;;;7.77;3.50;;;-2.60;99.90;;;;;;4880410;29;20246;-81
2024/01/11 09:31:49;;;;;;;14.40;4.93;;;-2.60;99.90;;;;;;4880318;29;20261;-80
2024/01/11 09:34:16;;;;;;;9.20;4.07;;;-2.60;99.90;;;;;;4880605;29;20211;-79
2024/01/11 09:36:45;;;;;;;10.37;4.27;;;-2.50;99.90;;;;;;4880490;29;20263;-82
2024/01/11 09:39:13;;;;;;;9.97;3.63;;;-2.50;99.90;;;;;;4880211;29;20211;-79
2024/01/11 09:41:47;;;;;;;9.73;3.80;;;-2.50;99.90;;;;;;4880099;29;20562;-80
2024/01/11 09:44:15;;;;;;;9.10;3.87;;;-2.50;99.90;;;;;;4880073;29;20662;-81
2024/01/11 09:46:42;;;;;;;16.53;5.73;;;-2.50;99.90;;;;;;4880225;29;20274;-80
2024/01/11 09:49:11;;;;;;;16.73;6.23;;;-2.40;99.90;;;;;;4881022;29;20242;-77
2024/01/11 09:51:40;;;;;;;10.17;4.67;;;-2.10;99.90;;;;;;4880308;29;20258;-79
2024/01/11 09:54:09;;;;;;;11.83;4.57;;;-1.90;99.90;;;;;;4880103;29;20246;-78
2024/01/11 09:56:36;;;;;;;10.87;4.53;;;-1.90;99.90;;;;;;4880143;29;20731;-79
2024/01/11 09:59:09;;;;;;;17.10;5.97;;;-1.90;99.90;;;;;;4880186;29;20317;-79
2024/01/11 10:01:36;;;;;;;16.53;5.53;;;-1.70;99.90;;;;;;4879989;29;20211;-79
2024/01/11 10:04:04;;;;;;;14.07;4.87;;;-1.60;99.90;;;;;;4879992;29;20211;-77
2024/01/11 10:06:34;;;;;;;11.80;4.83;;;-1.60;99.90;;;;;;4880892;29;20246;-79
2024/01/11 10:09:01;;;;;;;11.23;4.60;;;-1.90;99.90;;;;;;4879972;29;20211;-75
2024/01/11 10:11:28;;;;;;;11.87;4.07;;;-1.90;99.90;;;;;;4879791;29;20662;-78
2024/01/11 10:13:57;;;;;;;12.97;5.63;;;-2.30;99.90;;;;;;4879602;29;20717;-77
2024/01/11 10:16:26;;;;;;;14.90;3.87;;;-2.30;99.90;;;;;;4879670;29;20211;-74
2024/01/11 10:18:55;;;;;;;10.90;5.10;;;-1.90;99.90;;;;;;4879439;29;20242;-76
2024/01/11 10:21:22;;;;;;;17.67;4.83;;;-1.60;99.90;;;;;;4879434;29;20218;-76
2024/01/11 10:23:50;;;;;;;14.97;5.47;;;-1.50;99.90;;;;;;4879447;29;20245;-80
2024/01/11 10:26:17;;;;;;;15.90;5.20;;;-1.40;99.90;;;;;;4878973;29;20710;-79
2024/01/11 10:28:46;;;;;;;12.17;4.90;;;-1.40;99.90;;;;;;4879723;29;20678;-80
2024/01/11 10:31:14;;;;;;;12.23;4.70;;;-1.30;99.90;;;;;;4879640;29;20298;-74
2024/01/11 10:33:43;;;;;;;12.60;4.90;;;-1.30;99.90;;;;;;4879575;29;20235;-80
2024/01/11 10:36:12;;;;;;;8.17;4.20;;;-1.20;99.90;;;;;;4879899;29;20219;-80
2024/01/11 10:38:40;;;;;;;19.30;6.33;;;-1.30;99.90;;;;;;4879383;29;20286;-75
2024/01/11 10:41:08;;;;;;;13.20;6.07;;;-1.30;99.90;;;;;;4879342;29;20242;-78
2024/01/11 10:43:39;;;;;;;12.67;4.77;;;-1.20;99.90;;;;;;4879280;29;20267;-81
2024/01/11 10:46:07;;;;;;;13.27;4.57;;;-1.20;99.90;;;;;;4879343;29;20275;-83
2024/01/11 10:48:38;;;;;;;13.73;5.33;;;-1.20;99.90;;;;;;4879630;29;20242;-75
2024/01/11 10:51:09;;;;;;;16.80;5.23;;;-1.20;99.90;;;;;;4879428;29;20662;-79
2024/01/11 10:53:45;;;;;;;10.17;4.30;;;-1.50;99.90;;;;;;4879950;29;20706;-80
2024/01/11 10:56:13;;;;;;;13.90;5.67;;;-1.40;99.90;;;;;;4879622;29;20622;-76
2024/01/11 10:58:42;;;;;;;13.50;4.43;;;-1.30;99.90;;;;;;4879015;29;20211;-72
2024/01/11 11:01:10;;;;;;;14.97;6.03;;;-1.10;99.90;;;;;;4879347;29;20247;-71
2024/01/11 11:03:38;;;;;;;13.40;4.90;;;-1.10;99.90;;;;;;4880526;29;20232;-78
2024/01/11 11:06:08;;;;;;;7.63;4.00;;;-1.10;99.90;;;;;;4882823;29;20263;-76
2024/01/11 11:08:36;;;;;;;12.60;5.90;;;-1.00;99.90;;;;;;4880418;29;20211;-75
2024/01/11 11:11:05;;;;;;;14.23;5.03;;;-1.20;99.90;;;;;;4881925;29;20211;-77
2024/01/11 11:13:34;;;;;;;16.90;6.03;;;-1.20;99.90;;;;;;4882791;29;20231;-77
2024/01/11 11:16:03;;;;;;;12.87;4.00;;;-0.90;99.90;;;;;;4882427;29;20215;-77
2024/01/11 11:18:30;;;;;;;16.73;5.63;;;-0.70;99.90;;;;;;4880584;29;20670;-81
2024/01/11 11:20:58;;;;;;;12.60;4.17;;;-0.70;99.90;;;;;;4879205;29;20215;-77
2024/01/11 11:23:27;;;;;;;14.40;4.40;;;-0.70;99.90;;;;;;4879329;29;20234;-81
2024/01/11 11:25:56;;;;;;;23.20;5.47;;;-0.60;99.90;;;;;;4879739;29;20378;-79
2024/01/11 11:28:24;;;;;;;6.27;2.80;;;-0.50;99.90;;;;;;4880141;29;20305;-71
2024/01/11 11:30:53;;;;;;;12.73;4.87;;;-0.60;99.90;;;;;;4882184;29;20272;-80
2024/01/11 11:33:22;;;;;;;13.27;5.07;;;-0.50;99.90;;;;;;4880237;29;20789;-78
2024/01/11 11:35:49;;;;;;;11.67;5.10;;;-0.40;99.90;;;;;;4880443;29;20239;-75
2024/01/11 11:38:21;;;;;;;10.53;5.17;;;-0.50;99.90;;;;;;4880015;29;20211;-75
2024/01/11 11:40:51;;;;;;;10.60;4.40;;;-0.40;99.90;;;;;;4880496;29;20245;-77
2024/01/11 11:43:19;;;;;;;12.07;4.43;;;-0.30;99.90;;;;;;4879994;29;20714;-79
2024/01/11 11:45:48;;;;;;;9.67;3.93;;;-0.10;99.90;;;;;;4881588;29;20231;-78
2024/01/11 11:48:51;;;;;;;12.60;6.00;;;0.00;99.90;;;;;;4880196;29;20245;-75
2024/01/11 11:51:19;;;;;;;8.30;3.80;;;0.20;99.90;;;;;;4880382;29;20215;-80
2024/01/11 11:53:47;;;;;;;15.83;4.77;;;0.20;99.90;;;;;;4879607;29;20737;-80
2024/01/11 11:56:18;;;;;;;10.80;3.93;;;0.20;99.90;;;;;;4879463;29;20221;-79
2024/01/11 11:58:46;;;;;;;12.30;5.03;;;0.30;99.90;;;;;;4878865;29;20254;-77
2024/01/11 12:01:14;;;;;;;15.00;5.27;;;0.30;99.90;;;;;;4878544;29;20250;-76
2024/01/11 12:03:48;;;;;;;13.47;5.37;;;0.30;99.90;;;;;;4878967;29;20264;-77
2024/01/11 12:06:16;;;;;;;10.30;4.70;;;0.30;99.90;;;;;;4878974;29;20290;-77
2024/01/11 12:08:44;;;;;;;15.50;4.50;;;0.30;99.90;;;;;;4878670;29;20211;-79
2024/01/11 12:11:15;;;;;;;12.40;4.37;;;0.40;99.90;;;;;;4879039;29;20219;-76
2024/01/11 12:13:44;;;;;;;12.90;4.93;;;0.40;99.90;;;;;;4879005;29;20231;-80
2024/01/11 12:16:11;;;;;;;12.87;4.90;;;0.50;99.90;;;;;;4878545;29;20750;-84
2024/01/11 12:18:38;;;;;;;9.67;4.60;;;0.50;99.90;;;;;;4878560;29;20258;-79
2024/01/11 12:21:05;;;;;;;12.93;4.80;;;0.50;99.90;;;;;;4880283;29;20246;-74
2024/01/11 12:23:34;;;;;;;12.57;5.43;;;0.50;99.90;;;;;;4873995;29;20712;-76
2024/01/11 12:26:05;;;;;;;12.03;4.17;;;0.60;99.90;;;;;;4884174;29;20238;-80
2024/01/11 12:28:34;;;;;;;9.97;5.10;;;0.70;99.90;;;;;;4886638;29;20218;-83
2024/01/11 12:31:01;;;;;;;17.10;5.47;;;0.80;99.90;;;;;;4883522;29;20246;-86
2024/01/11 12:33:28;;;;;;;9.97;4.10;;;0.70;99.90;;;;;;4883139;29;20270;-82
2024/01/11 12:35:56;;;;;;;13.67;3.97;;;0.70;99.90;;;;;;4882286;29;20211;-80
2024/01/11 12:38:22;;;;;;;9.53;2.90;;;0.80;99.90;;;;;;4881945;29;20600;-87
2024/01/11 12:40:50;;;;;;;9.40;4.13;;;0.80;99.90;;;;;;4882161;29;20242;-84
2024/01/11 12:43:17;;;;;;;10.77;4.00;;;0.80;99.90;;;;;;4882338;29;20697;-74
2024/01/11 12:45:46;;;;;;;15.43;4.17;;;0.90;99.90;;;;;;4881131;29;20211;-79
2024/01/11 12:48:16;;;;;;;10.37;3.87;;;1.00;99.90;;;;;;4881220;29;20255;-72
2024/01/11 12:50:43;;;;;;;9.33;3.77;;;1.10;99.90;;;;;;4881439;29;20639;-83
2024/01/11 12:53:17;;;;;;;13.23;4.60;;;1.20;99.90;;;;;;4880918;29;20730;-82
2024/01/11 12:55:44;;;;;;;11.57;3.57;;;1.10;99.90;;;;;;4881172;29;20210;-72
2024/01/11 12:58:11;;;;;;;10.13;4.17;;;1.20;99.90;;;;;;4877258;29;20238;-79
2024/01/11 13:00:40;;;;;;;11.30;3.37;;;1.30;99.90;;;;;;4886448;29;20246;-75
2024/01/11 13:03:08;;;;;;;8.10;3.17;;;1.30;99.90;;;;;;4903869;29;20254;-80
2024/01/11 13:05:37;;;;;;;15.00;4.63;;;1.40;99.90;;;;;;4884426;29;20217;-80
2024/01/11 13:08:08;;;;;;;7.80;3.20;;;1.40;99.90;;;;;;4880566;29;20244;-80
2024/01/11 13:10:35;;;;;;;7.80;3.17;;;1.40;99.90;;;;;;4880501;29;20235;-82
2024/01/11 13:13:03;;;;;;;7.70;2.90;;;1.50;99.90;;;;;;4880817;29;20223;-73
2024/01/11 13:15:31;;;;;;;8.80;4.63;;;1.50;99.90;;;;;;4881184;29;20659;-75
2024/01/11 13:17:59;;;;;;;10.37;3.90;;;1.40;99.90;;;;;;4880593;29;20243;-74
2024/01/11 13:20:27;;;;;;;8.73;3.97;;;1.40;99.90;;;;;;4880196;29;20226;-80
2024/01/11 13:23:13;;;;;;;9.93;3.67;;;1.40;99.90;;;;;;4880342;29;20270;-77
2024/01/11 13:25:40;;;;;;;9.83;3.30;;;1.40;99.90;;;;;;4880330;29;20218;-76
2024/01/11 13:28:07;;;;;;;10.13;4.30;;;1.40;99.90;;;;;;4880293;29;20214;-71
2024/01/11 13:30:34;;;;;;;9.60;3.23;;;1.60;99.90;;;;;;4880581;29;20245;-73
2024/01/11 13:33:01;;;;;;;7.33;3.40;;;1.60;99.90;;;;;;4879767;29;20270;-78
2024/01/11 13:35:29;;;;;;;9.47;3.83;;;1.50;99.90;;;;;;4880101;29;20302;-69
2024/01/11 13:37:56;;;;;;;12.70;4.53;;;1.40;99.90;;;;;;4879792;29;20282;-76
2024/01/11 13:40:23;;;;;;;9.00;4.27;;;1.30;99.90;;;;;;4880534;29;20239;-73
2024/01/11 13:42:51;;;;;;;9.20;3.87;;;1.40;99.90;;;;;;4880055;29;20266;-73
2024/01/11 13:45:18;;;;;;;6.90;3.13;;;1.40;99.90;;;;;;4898334;29;20799;-78
2024/01/11 13:47:46;;;;;;;11.07;3.87;;;1.40;99.90;;;;;;4896976;29;20781;-71
2024/01/11 13:50:13;;;;;;;7.73;3.53;;;1.40;99.90;;;;;;4880303;29;20641;-79
2024/01/11 13:52:42;;;;;;;20.60;4.17;;;1.50;99.90;;;;;;4880307;29;20242;-74
2024/01/11 13:55:10;;;;;;;9.23;3.57;;;1.60;99.90;;;;;;4896896;29;20206;-75
2024/01/11 13:57:37;;;;;;;9.53;3.23;;;1.60;99.90;;;;;;4881623;29;20211;-73
2024/01/11 14:00:06;;;;;;;10.23;3.70;;;1.60;99.90;;;;;;4879899;29;20713;-78
2024/01/11 14:02:34;;;;;;;8.70;3.93;;;1.60;99.90;;;;;;4880081;29;20238;-76
2024/01/11 14:05:02;;;;;;;6.37;3.70;;;1.60;99.90;;;;;;4879960;29;20297;-78
2024/01/11 14:07:30;;;;;;;8.57;3.60;;;1.70;99.90;;;;;;4879642;29;20334;-77
2024/01/11 14:09:58;;;;;;;12.10;3.67;;;1.70;99.90;;;;;;4879947;29;20215;-77
2024/01/11 14:12:25;;;;;;;7.60;2.70;;;1.80;99.90;;;;;;4880158;29;20262;-75
2024/01/11 14:14:52;;;;;;;8.40;3.53;;;1.90;99.90;;;;;;4879781;29;20282;-74
2024/01/11 14:17:19;;;;;;;9.70;3.40;;;1.90;99.90;;;;;;4879960;29;20298;-74
2024/01/11 14:19:45;;;;;;;8.97;3.20;;;2.00;99.90;;;;;;4880053;29;20247;-77
2024/01/11 14:22:12;;;;;;;8.47;4.47;;;1.90;99.90;;;;;;4879664;29;20266;-78
2024/01/11 14:24:40;;;;;;;10.03;3.90;;;1.90;99.90;;;;;;4879966;29;20242;-76
2024/01/11 14:27:09;;;;;;;9.13;3.70;;;2.00;99.90;;;;;;4879894;29;20291;-76
2024/01/11 14:29:36;;;;;;;10.30;3.13;;;2.00;99.90;;;;;;4880037;29;20214;-79
2024/01/11 14:32:03;;;;;;;8.13;4.10;;;2.10;99.90;;;;;;4879419;29;20262;-77
2024/01/11 14:34:30;;;;;;;6.73;2.77;;;2.00;99.90;;;;;;4879958;29;20215;-78
2024/01/11 14:36:57;;;;;;;5.60;2.77;;;2.10;99.90;;;;;;4879726;29;20242;-75
2024/01/11 14:39:25;;;;;;;9.30;3.17;;;2.10;99.90;;;;;;4879805;29;20253;-77
2024/01/11 14:41:52;;;;;;;9.40;3.43;;;2.10;99.90;;;;;;4879363;29;20219;-79
2024/01/11 14:44:20;;;;;;;10.37;3.20;;;2.00;99.90;;;;;;4878916;29;20249;-75
2024/01/11 14:46:47;;;;;;;7.13;3.77;;;2.00;99.90;;;;;;4879461;29;20239;-79
2024/01/11 14:49:14;;;;;;;6.20;3.43;;;2.00;99.90;;;;;;4879619;29;20683;-75
2024/01/11 14:51:41;;;;;;;14.07;5.20;;;2.00;99.90;;;;;;4879308;29;20404;-74
2024/01/11 14:54:08;;;;;;;7.33;3.00;;;2.00;99.90;;;;;;4879506;29;20238;-77
2024/01/11 14:56:35;;;;;;;14.37;4.23;;;1.90;99.90;;;;;;4879348;29;20302;-76
2024/01/11 14:59:03;;;;;;;9.13;3.80;;;1.90;99.90;;;;;;4880452;29;20211;-76
2024/01/11 15:01:32;;;;;;;8.40;2.97;;;1.90;99.90;;;;;;4878942;29;20302;-77
2024/01/11 15:03:59;;;;;;;12.10;3.77;;;1.90;99.90;;;;;;4879144;29;20590;-78
2024/01/11 15:06:26;;;;;;;9.70;4.10;;;1.90;99.90;;;;;;4878877;29;20254;-79
2024/01/11 15:08:52;;;;;;;9.97;3.43;;;2.00;99.90;;;;;;4879143;29;20242;-73
2024/01/11 15:11:19;;;;;;;10.37;4.13;;;1.90;99.80;;;;;;4879549;29;20239;-76
2024/01/11 15:13:46;;;;;;;9.43;4.57;;;1.80;99.90;;;;;;4879132;29;20273;-76
2024/01/11 15:16:13;;;;;;;9.47;4.07;;;1.90;99.70;;;;;;4879359;29;20249;-78
2024/01/11 15:18:41;;;;;;;9.00;4.13;;;1.90;99.80;;;;;;4879460;29;20255;-76
2024/01/11 15:21:09;;;;;;;14.60;4.60;;;2.00;99.90;;;;;;4878776;29;20253;-78
2024/01/11 15:23:36;;;;;;;6.93;3.23;;;2.00;99.80;;;;;;4878992;29;20323;-79
2024/01/11 15:26:03;;;;;;;12.17;4.10;;;1.90;99.50;;;;;;4878817;29;20218;-75
2024/01/11 15:28:30;;;;;;;9.37;3.77;;;1.70;99.70;;;;;;4878803;29;20674;-76
2024/01/11 15:30:57;;;;;;;8.73;3.00;;;1.70;99.50;;;;;;4879131;29;20218;-76
2024/01/11 15:33:25;;;;;;;12.17;4.27;;;1.70;99.60;;;;;;4878931;29;20267;-80
2024/01/11 15:35:53;;;;;;;11.93;3.30;;;1.60;99.70;;;;;;4878985;29;20215;-75
2024/01/11 15:38:20;;;;;;;7.10;3.50;;;1.60;99.70;;;;;;4878674;29;20211;-77
2024/01/11 15:40:47;;;;;;;9.53;3.90;;;1.70;99.80;;;;;;4878929;29;20698;-76
2024/01/11 15:43:14;;;;;;;13.47;4.03;;;1.60;99.90;;;;;;4879050;29;20230;-77
2024/01/11 15:45:41;;;;;;;9.73;3.70;;;1.60;99.90;;;;;;4878815;29;20239;-69
2024/01/11 15:48:08;;;;;;;11.47;4.17;;;1.70;99.90;;;;;;4878586;29;20325;-81
2024/01/11 15:50:35;;;;;;;14.67;3.60;;;1.70;99.90;;;;;;4878356;29;20253;-81
2024/01/11 15:53:03;;;;;;;12.53;3.87;;;1.70;99.90;;;;;;4878323;29;20270;-82
2024/01/11 15:55:30;;;;;;;14.13;4.13;;;1.70;99.90;;;;;;4880673;29;20269;-73
2024/01/11 15:57:58;;;;;;;9.90;3.87;;;1.70;99.90;;;;;;4882148;29;20262;-75
2024/01/11 16:00:25;;;;;;;9.97;4.10;;;1.60;99.90;;;;;;4882387;29;20207;-80
2024/01/11 16:02:55;;;;;;;7.40;3.30;;;1.60;99.90;;;;;;4882204;29;20270;-77
2024/01/11 16:05:23;;;;;;;9.50;3.93;;;1.60;99.90;;;;;;4882109;29;20250;-76
2024/01/11 16:07:50;;;;;;;11.73;3.83;;;1.50;99.90;;;;;;4881925;29;20282;-76
2024/01/11 16:10:18;;;;;;;9.23;3.60;;;1.50;99.90;;;;;;4882161;29;20211;-77
2024/01/11 16:12:45;;;;;;;8.47;3.43;;;1.50;99.90;;;;;;4882395;29;20364;-80
2024/01/11 16:15:12;;;;;;;9.00;3.00;;;1.40;99.90;;;;;;4882214;29;20249;-70
2024/01/11 16:17:39;;;;;;;6.90;2.43;;;1.30;99.90;;;;;;4882257;29;20254;-80
2024/01/11 16:20:07;;;;;;;11.03;4.80;;;1.20;99.90;;;;;;4882164;29;20690;-80
2024/01/11 16:22:34;;;;;;;7.33;3.30;;;1.10;99.90;;;;;;4882051;29;20231;-78
2024/01/11 16:25:01;;;;;;;7.13;3.13;;;1.00;99.90;;;;;;4882011;29;20243;-74
2024/01/11 16:27:30;;;;;;;4.10;1.90;;;1.00;99.90;;;;;;4881779;29;20297;-77
2024/01/11 16:29:58;;;;;;;4.33;2.00;;;0.80;99.90;;;;;;4881750;29;20761;-77
2024/01/11 16:32:25;;;;;;;3.90;2.17;;;0.60;99.90;;;;;;4881493;29;20231;-74
2024/01/11 16:34:52;;;;;;;5.80;2.13;;;0.70;99.90;;;;;;4881480;29;20297;-78
2024/01/11 16:37:20;;;;;;;4.70;1.87;;;0.80;99.90;;;;;;4881458;29;20219;-71
2024/01/11 16:39:48;;;;;;;7.47;2.63;;;0.70;99.90;;;;;;4882228;29;20334;-70
2024/01/11 16:42:15;;;;;;;5.17;2.27;;;0.60;99.90;;;;;;4881745;29;20303;-74
2024/01/11 16:44:44;;;;;;;8.53;2.30;;;0.70;99.90;;;;;;4881217;29;20229;-72
2024/01/11 16:47:11;;;;;;;4.63;2.57;;;0.70;99.90;;;;;;4881680;29;20295;-73
2024/01/11 16:49:38;;;;;;;8.07;2.70;;;0.80;99.90;;;;;;4881835;29;20242;-79
2024/01/11 16:52:06;;;;;;;7.90;3.03;;;0.90;99.90;;;;;;4881128;29;20730;-74
2024/01/11 16:54:32;;;;;;;4.50;2.60;;;1.00;99.90;;;;;;4881465;29;20291;-79
2024/01/11 16:56:59;;;;;;;5.00;2.30;;;1.00;99.90;;;;;;4881227;29;20246;-73
2024/01/11 16:59:26;;;;;;;5.73;2.57;;;1.00;99.90;;;;;;4881497;29;20254;-73
2024/01/11 17:01:55;;;;;;;7.73;3.03;;;1.00;99.90;;;;;;4881333;29;20207;-74
2024/01/11 17:04:22;;;;;;;9.93;3.20;;;1.00;99.90;;;;;;4881610;29;20299;-71
2024/01/11 17:06:48;;;;;;;5.90;2.30;;;0.90;99.90;;;;;;4879932;29;20254;-68
2024/01/11 17:09:15;;;;;;;5.90;2.47;;;0.90;99.90;;;;;;4880623;29;20325;-74
2024/01/11 17:11:42;;;;;;;10.27;5.10;;;1.10;99.90;;;;;;4880887;29;20301;-76
2024/01/11 17:14:09;;;;;;;5.30;2.00;;;1.50;99.90;;;;;;4881115;29;20306;-74
2024/01/11 17:16:36;;;;;;;7.57;2.83;;;1.50;99.90;;;;;;4881064;29;20635;-70
2024/01/11 17:19:04;;;;;;;6.87;2.70;;;1.50;99.90;;;;;;4880785;29;20254;-69
2024/01/11 17:21:31;;;;;;;7.23;2.93;;;1.60;99.90;;;;;;4880230;29;20298;-73
2024/01/11 17:23:58;;;;;;;7.70;2.57;;;2.10;99.90;;;;;;4880637;29;20644;-78
2024/01/11 17:26:25;;;;;;;9.53;3.20;;;2.20;99.90;;;;;;4880448;29;20259;-74
2024/01/11 17:28:52;;;;;;;7.27;2.70;;;2.10;99.90;;;;;;4877264;29;20326;-73
2024/01/11 17:31:19;;;;;;;10.60;3.90;;;2.30;99.90;;;;;;4879681;29;20222;-75
2024/01/11 17:33:46;;;;;;;5.10;2.33;;;2.50;99.90;;;;;;4879126;29;20733;-72
2024/01/11 17:36:15;;;;;;;5.43;2.63;;;2.40;99.90;;;;;;4879099;29;20243;-69
2024/01/11 17:38:42;;;;;;;7.10;2.70;;;2.40;99.90;;;;;;4877470;29;20686;-75
2024/01/11 17:41:09;;;;;;;10.43;2.63;;;2.50;99.90;;;;;;4876933;29;20247;-82
2024/01/11 17:43:36;;;;;;;5.73;2.40;;;2.80;99.90;;;;;;4879998;29;20270;-78
2024/01/11 17:46:04;;;;;;;8.63;2.83;;;2.60;99.90;;;;;;4879023;29;20273;-78
2024/01/11 17:48:31;;;;;;;8.17;2.93;;;2.10;99.90;;;;;;4878787;29;20246;-83
2024/01/11 17:50:58;;;;;;;8.63;3.57;;;2.00;99.90;;;;;;4879950;29;20235;-82
2024/01/11 17:53:27;;;;;;;8.20;3.27;;;2.30;99.90;;;;;;4878543;29;20231;-84
2024/01/11 17:55:54;;;;;;;11.47;3.40;;;2.50;99.90;;;;;;4878205;29;20593;-77
2024/01/11 17:58:21;;;;;;;8.53;3.23;;;2.40;99.90;;;;;;4877340;29;20219;-81
2024/01/11 18:00:48;;;;;;;7.20;3.20;;;2.50;99.90;;;;;;4878426;29;20207;-80
2024/01/11 18:03:15;;;;;;;9.57;4.07;;;2.50;99.90;;;;;;4877526;29;20611;-74
2024/01/11 18:05:42;;;;;;;6.67;3.10;;;2.60;99.90;;;;;;4889790;29;20618;-82
2024/01/11 18:08:09;;;;;;;6.23;3.00;;;2.70;99.90;;;;;;4886181;29;20277;-82
2024/01/11 18:10:38;;;;;;;7.60;3.43;;;2.80;99.90;;;;;;4879190;29;20715;-82
2024/01/11 18:13:05;;;;;;;7.57;3.10;;;2.80;99.90;;;;;;4880264;29;20291;-80
2024/01/11 18:15:32;;;;;;;9.70;3.63;;;2.80;99.90;;;;;;4867123;29;20227;-79
2024/01/11 18:17:59;;;;;;;6.17;3.17;;;2.80;99.90;;;;;;4863416;29;20220;-75
2024/01/11 18:20:26;;;;;;;10.10;3.67;;;2.90;99.90;;;;;;4878513;29;20692;-81
2024/01/11 18:22:53;;;;;;;6.70;2.73;;;2.90;99.90;;;;;;4877534;29;20230;-80
2024/01/11 18:25:20;;;;;;;9.60;3.37;;;2.80;99.90;;;;;;4875761;29;20211;-78
2024/01/11 18:27:48;;;;;;;8.17;3.00;;;2.70;99.90;;;;;;4867929;29;20255;-77
2024/01/11 18:30:16;;;;;;;12.73;4.73;;;2.80;99.90;;;;;;4884566;29;20619;-78
2024/01/11 18:32:42;;;;;;;9.80;4.23;;;2.80;99.90;;;;;;4892437;29;20226;-75
2024/01/11 18:35:10;;;;;;;13.97;5.47;;;2.90;99.90;;;;;;4892520;29;20211;-78
2024/01/11 18:37:37;;;;;;;11.77;5.33;;;2.80;99.90;;;;;;4894083;29;20392;-78
2024/01/11 18:40:06;;;;;;;9.67;4.70;;;2.90;99.90;;;;;;4894034;29;20239;-77
2024/01/11 18:42:33;;;;;;;10.93;4.37;;;2.90;99.90;;;;;;4892236;29;20237;-78
2024/01/11 18:45:01;;;;;;;8.97;4.73;;;2.90;99.90;;;;;;4892786;29;20207;-75
2024/01/11 18:47:28;;;;;;;11.57;4.70;;;3.00;99.90;;;;;;4893798;29;20215;-76
2024/01/11 18:49:55;;;;;;;8.10;3.93;;;3.00;99.90;;;;;;4892532;29;20211;-75
2024/01/11 18:52:22;;;;;;;14.53;5.27;;;3.00;99.90;;;;;;4893220;29;20268;-75
2024/01/11 18:54:51;;;;;;;10.63;4.30;;;3.10;99.90;;;;;;4890746;29;20575;-78
2024/01/11 18:57:18;;;;;;;8.30;4.53;;;3.10;99.90;;;;;;4886245;29;20207;-75
2024/01/11 18:59:45;;;;;;;10.97;4.60;;;3.20;99.90;;;;;;4893228;29;20215;-78
2024/01/11 19:02:14;;;;;;;7.43;4.10;;;3.10;99.90;;;;;;4894521;29;20235;-77
2024/01/11 19:04:41;;;;;;;12.97;5.07;;;3.20;99.90;;;;;;4893959;29;20245;-78
2024/01/11 19:07:08;;;;;;;10.97;4.53;;;3.00;99.90;;;;;;4893627;29;20591;-75
2024/01/11 19:09:35;;;;;;;10.70;5.17;;;3.10;99.90;;;;;;4891184;29;20235;-79
2024/01/11 19:12:03;;;;;;;10.03;4.50;;;3.10;99.90;;;;;;4894464;29;20227;-78
2024/01/11 19:14:30;;;;;;;9.63;4.03;;;2.80;99.90;;;;;;4894452;29;20208;-80
2024/01/11 19:16:58;;;;;;;12.27;4.33;;;2.70;99.90;;;;;;4889693;29;20211;-78
2024/01/11 19:19:27;;;;;;;12.33;4.93;;;2.80;99.90;;;;;;4876306;29;20215;-78
2024/01/11 19:21:54;;;;;;;11.27;4.73;;;2.70;99.90;;;;;;4894806;29;20222;-78
2024/01/11 19:24:21;;;;;;;11.17;4.47;;;2.80;99.90;;;;;;4895359;29;20222;-79
2024/01/11 19:26:49;;;;;;;11.33;5.00;;;2.80;99.90;;;;;;4892498;29;20222;-76
2024/01/11 19:29:16;;;;;;;10.50;4.00;;;2.80;99.90;;;;;;4892889;29;20241;-80
2024/01/11 19:31:44;;;;;;;11.57;4.93;;;2.90;99.90;;;;;;4896276;29;20236;-79
2024/01/11 19:34:12;;;;;;;12.57;5.83;;;3.10;99.90;;;;;;4900997;29;20211;-79
2024/01/11 19:36:41;;;;;;;8.00;3.77;;;3.20;99.90;;;;;;4901373;29;20634;-76
2024/01/11 19:39:09;;;;;;;9.67;3.90;;;3.20;99.90;;;;;;4898384;29;20295;-77
2024/01/11 19:41:36;;;;;;;13.50;4.30;;;3.20;99.90;;;;;;4899417;29;20218;-75
2024/01/11 19:44:03;;;;;;;10.23;4.57;;;3.20;99.90;;;;;;4890101;29;20204;-76
2024/01/11 19:46:30;;;;;;;13.60;4.93;;;3.10;99.90;;;;;;4902374;29;20218;-75
2024/01/11 19:48:57;;;;;;;10.93;3.97;;;3.00;99.90;;;;;;4899591;29;20326;-74
2024/01/11 19:51:24;;;;;;;12.33;4.87;;;3.10;99.90;;;;;;4901770;29;20215;-75
2024/01/11 19:53:53;;;;;;;11.27;4.20;;;3.10;99.90;;;;;;4900089;29;20227;-75
2024/01/11 19:56:21;;;;;;;9.10;4.47;;;3.20;99.90;;;;;;4897792;29;20279;-78